createdAt,value
2022-12-12T00:04:46.739Z,29.70
2022-12-12T00:07:19.696Z,30.67
2022-12-12T00:10:13.594Z,29.17
2022-12-12T00:13:06.010Z,29.25
2022-12-12T00:15:33.800Z,23.60
2022-12-12T00:18:01.827Z,30.05
2022-12-12T00:20:33.909Z,31.40
2022-12-12T00:23:01.723Z,25.88
2022-12-12T00:25:29.792Z,30.15
2022-12-12T00:27:57.781Z,31.20
2022-12-12T00:30:26.011Z,28.98
2022-12-12T00:35:59.890Z,26.33
2022-12-12T00:38:32.013Z,25.85
2022-12-12T00:41:01.258Z,26.33
2022-12-12T00:46:24.341Z,23.77
2022-12-12T00:48:55.912Z,27.35
2022-12-12T00:51:25.955Z,27.92
2022-12-12T00:53:53.858Z,27.15
2022-12-12T00:56:28.017Z,19.98
2022-12-12T00:58:58.088Z,24.15
2022-12-12T01:01:28.594Z,26.83
2022-12-12T01:03:56.517Z,28.10
2022-12-12T01:06:29.679Z,25.77
2022-12-12T01:08:58.046Z,28.02
2022-12-12T01:11:30.953Z,23.75
2022-12-12T01:14:02.845Z,23.98
2022-12-12T01:16:29.822Z,23.00
2022-12-12T01:19:01.784Z,24.38
2022-12-12T01:21:29.761Z,28.55
2022-12-12T01:23:57.790Z,23.48
2022-12-12T01:26:49.915Z,25.65
2022-12-12T01:29:21.671Z,23.50
2022-12-12T01:31:49.728Z,27.05
2022-12-12T01:34:17.750Z,26.55
2022-12-12T01:36:45.743Z,24.90
2022-12-12T01:39:13.703Z,24.88
2022-12-12T01:41:43.303Z,26.67
2022-12-12T01:44:42.276Z,28.67
2022-12-12T01:50:05.844Z,28.17
2022-12-12T01:52:42.961Z,22.55
2022-12-12T01:55:15.544Z,25.27
2022-12-12T01:57:49.196Z,28.23
2022-12-12T02:00:18.754Z,21.83
2022-12-12T02:02:48.825Z,29.40
2022-12-12T02:05:25.356Z,26.25
2022-12-12T02:08:00.950Z,21.88
2022-12-12T02:10:32.989Z,22.88
2022-12-12T02:13:03.388Z,23.77
2022-12-12T02:15:55.885Z,26.65
2022-12-12T02:18:40.990Z,29.45
2022-12-12T02:21:34.434Z,24.80
2022-12-12T02:24:21.658Z,22.77
2022-12-12T02:27:41.761Z,24.33
2022-12-12T02:30:29.274Z,21.33
2022-12-12T02:33:07.227Z,26.98
2022-12-12T02:35:47.110Z,22.95
2022-12-12T02:38:47.986Z,24.08
2022-12-12T02:41:44.488Z,23.98
2022-12-12T02:44:35.245Z,20.48
2022-12-12T02:47:21.046Z,23.33
2022-12-12T02:50:01.935Z,18.80
2022-12-12T02:52:30.667Z,19.83
2022-12-12T02:55:02.719Z,28.73
2022-12-12T02:57:39.342Z,24.27
2022-12-12T03:00:15.615Z,20.40
2022-12-12T03:03:52.021Z,27.65
2022-12-12T03:06:59.344Z,26.83
2022-12-12T03:09:34.252Z,26.55
2022-12-12T03:12:33.096Z,25.08
2022-12-12T03:15:26.163Z,25.33
2022-12-12T03:18:21.514Z,26.27
2022-12-12T03:21:02.694Z,28.60
2022-12-12T03:23:46.821Z,22.88
2022-12-12T03:26:29.579Z,21.92
2022-12-12T03:29:11.169Z,29.65
2022-12-12T03:31:49.672Z,24.75
2022-12-12T03:34:26.742Z,25.70
2022-12-12T03:37:04.213Z,22.42
2022-12-12T03:43:16.994Z,26.05
2022-12-12T03:46:03.978Z,24.33
2022-12-12T03:48:36.786Z,27.45
2022-12-12T03:51:21.195Z,24.92
2022-12-12T03:54:32.308Z,25.73
2022-12-12T03:57:26.568Z,20.33
2022-12-12T04:00:18.523Z,27.30
2022-12-12T04:02:57.695Z,23.08
2022-12-12T04:05:34.991Z,23.98
2022-12-12T04:08:07.418Z,24.60
2022-12-12T04:11:00.723Z,26.00
2022-12-12T04:13:45.061Z,22.42
2022-12-12T04:16:14.153Z,28.15
2022-12-12T04:18:58.422Z,25.48
2022-12-12T04:22:01.184Z,33.28
2022-12-12T04:24:50.085Z,28.60
2022-12-12T04:27:32.914Z,29.25
2022-12-12T04:30:04.506Z,25.73
2022-12-12T04:32:52.796Z,22.48
2022-12-12T04:35:49.841Z,28.85
2022-12-12T04:38:21.807Z,26.42
2022-12-12T04:41:17.314Z,26.90
2022-12-12T04:43:49.674Z,27.80
2022-12-12T04:46:27.467Z,23.95
2022-12-12T04:49:05.551Z,29.08
2022-12-12T04:51:42.367Z,25.63
2022-12-12T04:54:27.807Z,22.13
2022-12-12T04:57:07.158Z,29.30
2022-12-12T04:59:37.363Z,24.35
2022-12-12T05:02:14.823Z,33.97
2022-12-12T05:05:23.298Z,23.73
2022-12-12T05:08:19.041Z,27.58
2022-12-12T05:10:55.894Z,23.13
2022-12-12T05:13:29.342Z,22.23
2022-12-12T05:16:00.334Z,22.90
2022-12-12T05:22:11.714Z,24.30
2022-12-12T05:24:39.723Z,22.67
2022-12-12T05:27:34.239Z,27.58
2022-12-12T05:30:01.715Z,24.83
2022-12-12T05:32:29.678Z,33.70
2022-12-12T05:35:28.805Z,25.73
2022-12-12T05:37:55.729Z,35.15
2022-12-12T05:40:27.833Z,27.17
2022-12-12T05:43:00.705Z,23.10
2022-12-12T05:45:27.799Z,26.77
2022-12-12T05:47:55.681Z,29.50
2022-12-12T05:50:23.681Z,28.95
2022-12-12T05:52:51.690Z,26.58
2022-12-12T05:55:21.823Z,28.98
2022-12-12T05:57:49.682Z,23.95
2022-12-12T06:00:17.895Z,29.20
2022-12-12T06:02:45.990Z,25.38
2022-12-12T06:05:14.225Z,25.23
2022-12-12T06:07:41.956Z,24.08
2022-12-12T06:10:09.991Z,26.35
2022-12-12T06:12:38.288Z,21.83
2022-12-12T06:15:06.891Z,29.80
2022-12-12T06:17:33.842Z,23.88
2022-12-12T06:20:06.683Z,27.92
2022-12-12T06:22:35.919Z,26.63
2022-12-12T06:25:09.222Z,26.55
2022-12-12T06:27:37.739Z,27.55
2022-12-12T06:30:06.988Z,26.27
2022-12-12T06:32:33.693Z,28.25
2022-12-12T06:35:27.917Z,24.65
2022-12-12T06:37:59.752Z,28.70
2022-12-12T06:40:27.708Z,25.60
2022-12-12T06:42:55.708Z,25.83
2022-12-12T06:45:23.881Z,31.63
2022-12-12T06:47:52.016Z,30.63
2022-12-12T06:50:23.684Z,29.75
2022-12-12T06:52:51.753Z,28.15
2022-12-12T06:55:23.548Z,28.25
2022-12-12T06:57:51.709Z,34.42
2022-12-12T07:00:20.169Z,31.27
2022-12-12T07:02:47.744Z,26.30
2022-12-12T07:05:15.804Z,29.20
2022-12-12T07:07:43.815Z,23.70
2022-12-12T07:10:21.090Z,34.17
2022-12-12T07:13:13.888Z,29.52
2022-12-12T07:15:47.395Z,30.13
2022-12-12T07:18:17.513Z,32.72
2022-12-12T07:20:46.299Z,28.00
2022-12-12T07:23:16.415Z,25.95
2022-12-12T07:25:45.913Z,26.15
2022-12-12T07:28:19.944Z,26.95
2022-12-12T07:30:55.902Z,30.27
2022-12-12T07:33:29.745Z,30.23
2022-12-12T07:36:12.005Z,25.02
2022-12-12T07:39:09.087Z,27.02
2022-12-12T07:41:46.058Z,24.35
2022-12-12T07:44:25.371Z,25.40
2022-12-12T07:46:53.872Z,24.98
2022-12-12T07:52:17.974Z,24.40
2022-12-12T07:54:48.254Z,26.95
2022-12-12T07:57:32.485Z,26.33
2022-12-12T08:00:07.640Z,24.77
2022-12-12T08:02:40.168Z,27.92
2022-12-12T08:05:36.530Z,23.30
2022-12-12T08:08:49.991Z,26.70
2022-12-12T08:14:49.558Z,28.60
2022-12-12T08:18:19.197Z,27.02
2022-12-12T08:20:53.921Z,29.92
2022-12-12T08:23:29.264Z,27.83
2022-12-12T08:26:09.390Z,29.35
2022-12-12T08:28:38.662Z,26.35
2022-12-12T08:34:16.546Z,25.92
2022-12-12T08:36:51.617Z,31.55
2022-12-12T08:39:52.716Z,31.30
2022-12-12T08:42:35.576Z,30.17
2022-12-12T08:45:15.473Z,27.38
2022-12-12T08:47:51.757Z,31.40
2022-12-12T08:50:54.722Z,26.25
2022-12-12T08:53:42.029Z,32.22
2022-12-12T08:56:34.514Z,32.53
2022-12-12T09:02:32.100Z,28.08
2022-12-12T09:08:20.328Z,26.25
2022-12-12T09:10:55.244Z,28.55
2022-12-12T09:13:26.800Z,29.33
2022-12-12T09:16:05.399Z,30.20
2022-12-12T09:18:35.019Z,30.48
2022-12-12T09:21:02.188Z,35.85
2022-12-12T09:23:31.707Z,25.25
2022-12-12T09:26:12.370Z,28.40
2022-12-12T09:29:12.934Z,28.60
2022-12-12T09:31:47.303Z,25.05
2022-12-12T09:34:18.955Z,29.00
2022-12-12T09:36:52.315Z,26.38
2022-12-12T09:39:20.025Z,25.85
2022-12-12T09:41:51.421Z,28.27
2022-12-12T09:44:22.661Z,32.63
2022-12-12T09:47:02.614Z,28.30
2022-12-12T09:52:52.598Z,26.35
2022-12-12T09:55:42.656Z,27.48
2022-12-12T10:02:09.227Z,29.23
2022-12-12T10:04:51.020Z,31.08
2022-12-12T10:10:26.862Z,35.08
2022-12-12T10:13:09.175Z,27.45
2022-12-12T10:16:21.207Z,29.63
2022-12-12T10:21:41.945Z,34.03
2022-12-12T10:24:51.505Z,33.60
2022-12-12T10:27:20.217Z,29.50
2022-12-12T10:30:21.011Z,32.25
2022-12-12T10:33:13.612Z,32.83
2022-12-12T10:36:32.927Z,37.00
2022-12-12T10:39:21.735Z,34.22
2022-12-12T10:42:30.763Z,27.83
2022-12-12T10:45:55.884Z,23.10
2022-12-12T10:48:46.714Z,22.10
2022-12-12T10:51:21.341Z,27.25
2022-12-12T10:53:57.614Z,21.65
2022-12-12T10:59:56.113Z,22.67
2022-12-12T11:02:51.051Z,25.60
2022-12-12T11:05:51.174Z,24.58
2022-12-12T11:09:22.794Z,31.05
2022-12-12T11:15:17.209Z,26.58
2022-12-12T11:17:52.417Z,28.08
2022-12-12T11:20:24.644Z,20.17
2022-12-12T11:26:11.877Z,24.25
2022-12-12T11:28:44.137Z,21.58
2022-12-12T11:31:18.645Z,24.38
2022-12-12T11:34:08.910Z,24.73
2022-12-12T11:36:41.724Z,24.40
2022-12-12T11:42:39.987Z,27.45
2022-12-12T11:45:16.725Z,28.65
2022-12-12T11:47:50.499Z,33.83
2022-12-12T11:53:45.092Z,28.60
2022-12-12T11:57:01.270Z,31.98
2022-12-12T12:00:06.170Z,31.08
2022-12-12T12:03:26.460Z,31.98
2022-12-12T12:06:12.106Z,30.67
2022-12-12T12:09:06.814Z,26.25
2022-12-12T12:12:19.368Z,29.48
2022-12-12T12:15:24.043Z,26.85
2022-12-12T12:18:29.783Z,32.58
2022-12-12T12:54:23.523Z,24.85
2022-12-12T12:57:00.016Z,38.15
2022-12-12T12:59:41.346Z,29.30
2022-12-12T13:02:25.286Z,33.80
2022-12-12T13:05:14.365Z,27.85
2022-12-12T13:07:56.561Z,32.13
2022-12-12T13:10:29.541Z,33.50
2022-12-12T13:13:07.048Z,29.75
2022-12-12T13:15:45.729Z,27.70
2022-12-12T13:18:16.946Z,30.05
2022-12-12T13:24:23.747Z,25.05
2022-12-12T13:27:05.995Z,28.13
2022-12-12T13:29:48.525Z,31.42
2022-12-12T13:32:47.730Z,27.30
2022-12-12T13:35:32.687Z,26.92
2022-12-12T13:41:10.238Z,32.28
2022-12-12T13:44:06.291Z,32.10
2022-12-12T13:46:37.928Z,26.67
2022-12-12T13:52:31.481Z,26.80
2022-12-12T13:55:20.218Z,26.85
2022-12-12T14:01:32.497Z,27.13
2022-12-12T14:04:03.184Z,30.10
2022-12-12T14:06:32.262Z,30.33
2022-12-12T14:09:01.362Z,28.02
2022-12-12T14:11:36.572Z,32.70
2022-12-12T14:14:11.417Z,36.83
2022-12-12T14:19:40.135Z,27.55
2022-12-12T14:23:03.122Z,24.13
2022-12-12T14:25:45.474Z,31.85
2022-12-12T14:28:32.003Z,25.95
2022-12-12T14:31:35.096Z,31.42
2022-12-12T14:34:19.353Z,32.75
2022-12-12T14:37:18.756Z,28.48
2022-12-12T14:39:55.777Z,27.45
2022-12-12T14:43:17.826Z,27.15
2022-12-12T14:45:55.498Z,34.33
2022-12-12T14:48:36.821Z,31.83
2022-12-12T14:51:15.813Z,29.35
2022-12-12T14:53:56.128Z,29.88
2022-12-12T14:56:38.017Z,30.00
2022-12-12T15:02:58.203Z,31.02
2022-12-12T15:05:31.112Z,23.13
2022-12-12T15:08:35.182Z,28.65
2022-12-12T15:11:09.357Z,32.13
2022-12-12T15:13:40.944Z,28.15
2022-12-12T15:19:05.193Z,32.35
2022-12-12T15:21:36.539Z,29.60
2022-12-12T15:24:05.731Z,28.40
2022-12-12T15:29:32.371Z,33.00
2022-12-12T15:32:03.926Z,31.85
2022-12-12T15:34:47.245Z,34.72
2022-12-12T15:37:22.563Z,35.20
2022-12-12T15:40:14.900Z,36.38
2022-12-12T15:42:53.092Z,35.47
2022-12-12T15:45:43.822Z,35.60
2022-12-12T15:48:19.181Z,32.42
2022-12-12T15:50:58.733Z,28.23
2022-12-12T15:56:29.235Z,33.08
2022-12-12T15:59:24.364Z,39.72
2022-12-12T16:01:51.738Z,33.75
2022-12-12T16:05:01.090Z,36.35
2022-12-12T16:07:41.838Z,33.75
2022-12-12T16:13:25.868Z,29.80
2022-12-12T16:18:51.814Z,32.75
2022-12-12T16:21:19.726Z,33.75
2022-12-12T16:24:33.107Z,34.25
2022-12-12T16:27:01.851Z,38.38
2022-12-12T16:29:36.309Z,39.97
2022-12-12T16:32:05.046Z,35.10
2022-12-12T16:34:59.858Z,41.58
2022-12-12T16:37:28.004Z,37.05
2022-12-12T16:40:21.886Z,32.97
2022-12-12T16:43:11.102Z,44.28
2022-12-12T16:45:41.539Z,38.90
2022-12-12T16:48:21.600Z,33.80
2022-12-12T16:50:58.714Z,40.65
2022-12-12T16:53:28.361Z,39.78
2022-12-12T16:58:52.478Z,42.92
2022-12-12T17:01:22.863Z,47.78
2022-12-12T17:03:58.405Z,49.65
2022-12-12T17:13:50.343Z,41.65
2022-12-12T17:16:50.109Z,39.30
2022-12-12T17:19:30.080Z,35.67
2022-12-12T17:22:07.383Z,49.53
2022-12-12T17:24:42.316Z,44.05
2022-12-12T17:30:01.817Z,50.45
2022-12-12T17:32:35.706Z,47.45
2022-12-12T17:40:44.156Z,50.10
2022-12-12T17:43:32.467Z,50.80
2022-12-12T17:46:07.987Z,51.67
2022-12-12T17:49:15.169Z,65.65
2022-12-12T17:52:28.794Z,50.67
2022-12-12T17:55:52.353Z,48.75
2022-12-12T17:57:47.876Z,56.67
2022-12-12T18:00:19.591Z,61.53
2022-12-12T18:02:51.610Z,69.72
2022-12-12T18:11:17.344Z,56.13
2022-12-12T18:13:51.099Z,40.10
2022-12-12T18:16:21.111Z,52.92
2022-12-12T18:22:01.270Z,56.35
2022-12-12T18:24:56.184Z,55.03
2022-12-12T18:27:51.883Z,59.13
2022-12-12T18:30:20.006Z,61.03
2022-12-12T18:33:16.670Z,52.50
2022-12-12T18:35:53.309Z,49.33
2022-12-12T18:41:16.894Z,58.15
2022-12-12T18:43:51.553Z,51.08
2022-12-12T18:46:22.474Z,45.03
2022-12-12T18:49:18.183Z,55.28
2022-12-12T18:51:49.082Z,56.05
2022-12-12T18:54:19.516Z,50.67
2022-12-12T19:02:36.440Z,57.40
2022-12-12T19:05:05.881Z,50.83
2022-12-12T19:07:38.561Z,48.20
2022-12-12T19:10:13.827Z,51.58
2022-12-12T19:12:43.348Z,46.47
2022-12-12T19:15:17.387Z,47.35
2022-12-12T19:17:48.682Z,48.08
2022-12-12T19:20:20.382Z,54.03
2022-12-12T19:22:48.938Z,48.08
2022-12-12T19:25:18.865Z,47.38
2022-12-12T19:28:12.548Z,36.60
2022-12-12T19:30:42.830Z,48.17
2022-12-12T19:33:22.810Z,47.65
2022-12-12T19:38:52.810Z,56.30
2022-12-12T19:41:24.873Z,59.50
2022-12-12T19:44:06.568Z,57.53
2022-12-12T19:46:46.475Z,52.17
2022-12-12T19:49:17.359Z,56.78
2022-12-12T19:51:53.385Z,59.25
2022-12-12T19:54:23.322Z,53.70
2022-12-12T19:56:51.804Z,56.70
2022-12-12T19:59:25.298Z,47.80
2022-12-12T20:01:55.678Z,47.40
2022-12-12T20:04:26.656Z,44.85
2022-12-12T20:09:38.114Z,60.30
2022-12-12T20:12:08.197Z,60.75
2022-12-12T20:15:07.849Z,51.17
2022-12-12T20:18:00.834Z,53.92
2022-12-12T20:20:39.348Z,56.92
2022-12-12T20:23:16.524Z,50.78
2022-12-12T20:25:54.512Z,52.97
2022-12-12T20:28:48.197Z,52.35
2022-12-12T20:31:40.952Z,51.78
2022-12-12T20:34:18.860Z,66.00
2022-12-12T20:36:57.307Z,60.53
2022-12-12T20:39:41.010Z,44.33
2022-12-12T20:45:08.450Z,56.53
2022-12-12T20:48:28.239Z,55.70
2022-12-12T20:51:01.270Z,45.53
2022-12-12T20:53:46.678Z,53.00
2022-12-12T20:56:29.282Z,50.28
2022-12-12T20:59:02.454Z,43.97
2022-12-12T21:04:22.801Z,50.50
2022-12-12T21:06:57.230Z,44.13
2022-12-12T21:09:35.921Z,46.50
2022-12-12T21:15:27.047Z,46.15
2022-12-12T21:17:58.517Z,46.28
2022-12-12T21:20:29.735Z,43.58
2022-12-12T21:26:00.915Z,45.33
2022-12-12T21:28:27.684Z,43.50
2022-12-12T21:30:58.686Z,40.20
2022-12-12T21:33:35.450Z,41.13
2022-12-12T21:36:18.459Z,43.60
2022-12-12T21:38:48.698Z,49.63
2022-12-12T21:41:26.038Z,43.08
2022-12-12T21:43:57.852Z,41.97
2022-12-12T21:46:34.585Z,48.70
2022-12-12T21:49:23.461Z,47.28
2022-12-12T21:52:06.391Z,47.50
2022-12-12T21:54:55.212Z,37.95
2022-12-12T21:57:29.359Z,41.88
2022-12-12T22:00:17.660Z,44.60
2022-12-12T22:02:51.808Z,40.80
2022-12-12T22:05:31.035Z,50.20
2022-12-12T22:08:12.795Z,43.47
2022-12-12T22:10:58.636Z,49.55
2022-12-12T22:13:46.072Z,37.90
2022-12-12T22:16:37.189Z,47.72
2022-12-12T22:19:11.312Z,41.60
2022-12-12T22:21:46.499Z,47.05
2022-12-12T22:24:44.705Z,39.53
2022-12-12T22:27:42.570Z,45.85
2022-12-12T22:30:13.142Z,40.42
2022-12-12T22:32:44.001Z,46.78
2022-12-12T22:35:13.207Z,45.90
2022-12-12T22:51:41.677Z,31.52
2022-12-12T22:54:11.226Z,40.05
2022-12-12T22:56:53.917Z,42.88
2022-12-12T22:59:27.989Z,49.88
2022-12-12T23:02:01.706Z,45.13
2022-12-12T23:04:35.865Z,45.38
2022-12-12T23:07:07.593Z,41.67
2022-12-12T23:12:49.091Z,37.72
2022-12-12T23:15:24.663Z,47.45
2022-12-12T23:17:57.176Z,44.15
2022-12-12T23:23:27.411Z,43.67
2022-12-12T23:29:02.728Z,44.35
2022-12-12T23:31:37.634Z,36.92
2022-12-12T23:34:29.598Z,38.55
2022-12-12T23:37:00.039Z,47.03
2022-12-12T23:39:56.033Z,48.38
2022-12-12T23:42:32.043Z,42.13
2022-12-12T23:45:04.109Z,46.05
2022-12-12T23:47:35.137Z,41.05
2022-12-12T23:50:40.035Z,39.83
2022-12-12T23:53:34.748Z,36.97
2022-12-12T23:56:32.507Z,36.50
2022-12-12T23:59:17.942Z,37.15
